Time;durP1;ratioP1;P1;durP2;ratioP2;P2;SDS_P1;SDS_P2;PMS_P1;PMS_P2;Temp;Humidity;BMP_temperature;BMP_pressure;BME280_temperature;BME280_humidity;BME280_pressure;Samples;Min_cycle;Max_cycle;Signal;HPM_P1;HPM_P2
2022/05/06 00:02:05;;;;;;;68.35;37.92;;;11.30;99.90;;;;;;5005771;28;25148;-71
2022/05/06 00:04:31;;;;;;;78.80;39.78;;;11.30;99.90;;;;;;5006195;28;25054;-72
2022/05/06 00:06:57;;;;;;;73.85;38.20;;;11.30;99.90;;;;;;5005612;28;25091;-70
2022/05/06 00:09:23;;;;;;;66.97;35.60;;;11.20;99.90;;;;;;5007522;28;25118;-71
2022/05/06 00:11:50;;;;;;;77.57;36.97;;;11.30;99.90;;;;;;5007277;28;25099;-69
2022/05/06 00:14:15;;;;;;;82.25;38.85;;;11.40;99.90;;;;;;5006529;28;25058;-69
2022/05/06 00:16:41;;;;;;;70.95;36.38;;;11.10;99.90;;;;;;5006922;28;25109;-70
2022/05/06 00:19:06;;;;;;;62.60;33.88;;;11.10;99.90;;;;;;5006921;28;25063;-72
2022/05/06 00:21:32;;;;;;;72.28;34.90;;;11.10;99.90;;;;;;5010020;28;25083;-69
2022/05/06 00:23:57;;;;;;;97.45;40.13;;;11.20;99.90;;;;;;5008374;28;25065;-71
2022/05/06 00:26:23;;;;;;;81.20;39.22;;;11.00;99.90;;;;;;5007151;28;25148;-70
2022/05/06 00:28:48;;;;;;;83.60;40.03;;;11.00;99.90;;;;;;5008511;28;25066;-70
2022/05/06 00:31:14;;;;;;;84.88;41.10;;;11.00;99.90;;;;;;5008403;28;25078;-70
2022/05/06 00:33:40;;;;;;;74.55;37.28;;;11.00;99.90;;;;;;5006715;28;25070;-70
2022/05/06 00:36:05;;;;;;;78.15;38.40;;;11.00;99.90;;;;;;5006568;28;25068;-73
2022/05/06 00:38:32;;;;;;;78.53;37.80;;;11.10;99.90;;;;;;5008690;28;25114;-70
2022/05/06 00:40:57;;;;;;;69.95;36.63;;;11.10;99.90;;;;;;5007297;28;25077;-71
2022/05/06 00:43:27;;;;;;;79.18;38.22;;;11.00;99.90;;;;;;5008480;28;25095;-69
2022/05/06 00:45:56;;;;;;;78.20;39.20;;;10.90;99.90;;;;;;5006713;28;25129;-70
2022/05/06 00:48:27;;;;;;;96.40;40.70;;;10.90;99.90;;;;;;5006778;28;25069;-71
2022/05/06 00:50:54;;;;;;;95.93;40.70;;;10.90;99.90;;;;;;5008220;28;25067;-71
2022/05/06 00:53:19;;;;;;;112.80;45.70;;;10.80;99.90;;;;;;5005817;28;25067;-70
2022/05/06 00:55:46;;;;;;;89.82;41.15;;;10.80;99.90;;;;;;5008483;28;25128;-70
2022/05/06 00:58:13;;;;;;;80.18;39.38;;;10.70;99.90;;;;;;5007908;28;25094;-72
2022/05/06 01:00:38;;;;;;;90.50;42.60;;;10.80;99.90;;;;;;5007778;28;25069;-71
2022/05/06 01:03:04;;;;;;;101.63;44.92;;;10.90;99.90;;;;;;5006119;28;25078;-70
2022/05/06 01:05:30;;;;;;;93.07;43.03;;;10.90;99.90;;;;;;5007978;28;25059;-71
2022/05/06 01:07:58;;;;;;;84.30;42.03;;;10.90;99.90;;;;;;5006269;28;25176;-71
2022/05/06 01:10:23;;;;;;;91.22;43.92;;;10.90;99.90;;;;;;5009568;28;25067;-69
2022/05/06 01:12:50;;;;;;;84.28;43.17;;;11.00;99.90;;;;;;5008524;28;25107;-69
2022/05/06 01:15:20;;;;;;;87.35;44.88;;;11.00;99.90;;;;;;5006355;28;25134;-70
2022/05/06 01:17:50;;;;;;;80.85;42.17;;;11.10;99.90;;;;;;5009380;28;25098;-68
2022/05/06 01:20:20;;;;;;;82.68;43.10;;;11.20;99.90;;;;;;5007656;28;25140;-72
2022/05/06 01:22:46;;;;;;;90.68;45.75;;;11.20;99.90;;;;;;5008210;28;25074;-71
2022/05/06 01:25:12;;;;;;;87.93;46.53;;;11.20;99.90;;;;;;5008435;28;25075;-71
2022/05/06 01:27:51;;;;;;;128.40;51.35;;;11.20;99.90;;;;;;5006926;28;25075;-71
2022/05/06 01:30:39;;;;;;;99.05;48.95;;;11.10;99.90;;;;;;5008466;28;25068;-70
2022/05/06 01:33:06;;;;;;;99.45;48.88;;;11.00;99.90;;;;;;5005545;28;25075;-70
2022/05/06 01:35:41;;;;;;;112.80;49.60;;;11.00;99.90;;;;;;5008153;28;25126;-69
2022/05/06 01:38:09;;;;;;;93.90;46.97;;;11.00;99.90;;;;;;5007472;28;25089;-73
2022/05/06 01:40:49;;;;;;;105.97;49.60;;;11.10;99.90;;;;;;5006933;28;25135;-71
2022/05/06 01:43:16;;;;;;;92.05;46.15;;;11.20;99.90;;;;;;5004763;28;25072;-71
2022/05/06 01:45:45;;;;;;;105.57;47.55;;;11.10;99.90;;;;;;5006876;28;25062;-70
2022/05/06 01:48:12;;;;;;;100.82;48.97;;;11.10;99.90;;;;;;5004439;28;25086;-70
2022/05/06 01:50:38;;;;;;;109.20;48.97;;;11.10;99.90;;;;;;5005530;28;25053;-70
2022/05/06 01:53:05;;;;;;;90.97;44.40;;;11.10;99.90;;;;;;5005701;28;25111;-71
2022/05/06 01:55:31;;;;;;;104.50;48.33;;;11.10;99.90;;;;;;5005923;28;25084;-70
2022/05/06 01:57:56;;;;;;;113.35;50.20;;;11.10;99.90;;;;;;5005847;28;25076;-69
2022/05/06 02:00:22;;;;;;;102.20;49.65;;;11.20;99.90;;;;;;5004838;28;25091;-71
2022/05/06 02:02:47;;;;;;;98.95;47.53;;;11.20;99.90;;;;;;5001266;28;25058;-70
2022/05/06 02:05:24;;;;;;;108.80;50.63;;;11.20;99.90;;;;;;5006002;28;25093;-71
2022/05/06 02:07:52;;;;;;;107.93;49.70;;;11.20;99.90;;;;;;5005800;28;25142;-70
2022/05/06 02:10:20;;;;;;;105.93;48.58;;;11.10;99.90;;;;;;5009259;28;25060;-71
2022/05/06 02:12:46;;;;;;;109.63;51.20;;;11.20;99.90;;;;;;5018344;28;25053;-70
2022/05/06 02:15:13;;;;;;;106.15;48.78;;;11.20;99.90;;;;;;5010788;28;25071;-70
2022/05/06 02:17:39;;;;;;;115.80;51.00;;;11.20;99.90;;;;;;5014859;28;25060;-70
2022/05/06 02:20:06;;;;;;;121.78;54.42;;;11.00;99.90;;;;;;5013102;28;25066;-69
2022/05/06 02:22:33;;;;;;;136.85;53.45;;;10.90;99.90;;;;;;5014388;28;25087;-70
2022/05/06 02:24:58;;;;;;;141.45;53.15;;;10.80;99.90;;;;;;5017842;28;25081;-70
2022/05/06 02:27:24;;;;;;;149.65;53.92;;;10.70;99.90;;;;;;5017260;28;25169;-69
2022/05/06 02:35:19;;;;;;;129.45;48.58;;;10.80;99.90;;;;;;5021556;28;25086;-70
2022/05/06 02:37:45;;;;;;;124.72;48.45;;;10.80;99.90;;;;;;5024103;28;25066;-69
2022/05/06 02:40:11;;;;;;;116.45;46.60;;;10.70;99.90;;;;;;5030412;28;25093;-69
2022/05/06 02:42:37;;;;;;;135.73;50.97;;;10.70;99.90;;;;;;5036202;28;25026;-70
2022/05/06 02:45:04;;;;;;;218.65;56.53;;;10.60;99.90;;;;;;5032979;28;25056;-71
2022/05/06 02:47:30;;;;;;;167.25;52.67;;;10.60;99.90;;;;;;5036041;28;25097;-71
2022/05/06 02:49:55;;;;;;;107.20;45.08;;;10.60;99.90;;;;;;5029931;28;25063;-70
2022/05/06 02:52:22;;;;;;;106.18;44.30;;;10.70;99.90;;;;;;5009142;28;25146;-69
2022/05/06 02:54:48;;;;;;;116.25;44.42;;;10.80;99.90;;;;;;5008068;28;25077;-70
2022/05/06 02:57:13;;;;;;;118.22;42.85;;;10.80;99.90;;;;;;5005311;28;25050;-71
2022/05/06 02:59:39;;;;;;;106.13;42.08;;;10.60;99.90;;;;;;5003853;28;25150;-70
2022/05/06 03:02:05;;;;;;;100.85;41.85;;;10.70;99.90;;;;;;5005869;28;25055;-70
2022/05/06 03:04:31;;;;;;;94.60;39.58;;;10.70;99.90;;;;;;5005722;28;25081;-70
2022/05/06 03:06:57;;;;;;;128.30;43.95;;;10.70;99.90;;;;;;5007236;28;25069;-72
2022/05/06 03:09:23;;;;;;;101.78;39.45;;;10.70;99.90;;;;;;5006215;28;25062;-70
2022/05/06 03:11:49;;;;;;;106.97;41.40;;;10.60;99.90;;;;;;5006414;28;25070;-70
2022/05/06 03:14:14;;;;;;;118.85;43.05;;;10.70;99.90;;;;;;5004939;28;25087;-69
2022/05/06 03:16:40;;;;;;;101.90;41.30;;;10.70;99.90;;;;;;5004379;28;25144;-68
2022/05/06 03:19:06;;;;;;;99.88;39.75;;;10.60;99.90;;;;;;5005603;28;25057;-71
2022/05/06 03:21:32;;;;;;;120.57;40.08;;;10.70;99.90;;;;;;5007020;28;25066;-70
2022/05/06 03:23:58;;;;;;;92.40;38.30;;;10.60;99.90;;;;;;5003143;28;25043;-69
2022/05/06 03:26:24;;;;;;;104.75;41.00;;;10.70;99.90;;;;;;5006008;28;25057;-72
2022/05/06 03:28:52;;;;;;;128.70;43.15;;;10.70;99.90;;;;;;5005797;28;25060;-70
2022/05/06 03:31:18;;;;;;;101.82;40.00;;;10.80;99.90;;;;;;5005712;28;25146;-69
2022/05/06 03:33:44;;;;;;;121.88;39.40;;;10.90;99.90;;;;;;5005848;28;25071;-71
2022/05/06 03:36:09;;;;;;;106.68;39.65;;;10.80;99.90;;;;;;5007030;28;25078;-71
2022/05/06 03:38:35;;;;;;;151.25;41.95;;;10.80;99.90;;;;;;5006004;28;25073;-70
2022/05/06 03:41:01;;;;;;;142.00;42.58;;;10.60;99.90;;;;;;5006312;28;25074;-70
2022/05/06 03:43:29;;;;;;;175.10;44.60;;;10.50;99.90;;;;;;5003404;28;25060;-69
2022/05/06 03:45:55;;;;;;;173.93;46.63;;;10.50;99.90;;;;;;5006018;28;25060;-71
2022/05/06 03:48:24;;;;;;;148.48;45.15;;;10.50;99.90;;;;;;5005501;28;25063;-70
2022/05/06 03:53:35;;;;;;;200.75;47.85;;;10.70;99.90;;;;;;5004113;28;25076;-70
2022/05/06 03:56:01;;;;;;;231.48;48.22;;;10.80;99.90;;;;;;5005734;28;25084;-71
2022/05/06 03:58:27;;;;;;;321.83;54.13;;;10.70;99.90;;;;;;5004460;28;24624;-70
2022/05/06 04:00:52;;;;;;;339.85;53.63;;;10.70;99.90;;;;;;5005682;28;25160;-70
2022/05/06 04:03:18;;;;;;;201.80;48.83;;;10.70;99.90;;;;;;5005560;28;25140;-70
2022/05/06 04:05:45;;;;;;;194.30;51.60;;;10.70;99.90;;;;;;5005607;28;25056;-70
2022/05/06 04:08:11;;;;;;;262.70;56.85;;;10.80;99.90;;;;;;5006185;28;25091;-71
2022/05/06 04:10:36;;;;;;;190.98;51.72;;;10.70;99.90;;;;;;5007131;28;25105;-69
2022/05/06 04:13:05;;;;;;;183.20;52.70;;;10.80;99.90;;;;;;5009945;28;25066;-69
2022/05/06 04:15:34;;;;;;;280.50;54.47;;;10.90;99.90;;;;;;5006805;28;25068;-70
2022/05/06 04:18:01;;;;;;;257.05;56.97;;;10.90;99.90;;;;;;5006941;28;25117;-69
2022/05/06 04:23:29;;;;;;;176.10;53.38;;;10.90;99.90;;;;;;5005693;28;25072;-70
2022/05/06 04:26:00;;;;;;;240.27;57.67;;;10.90;99.90;;;;;;5006977;28;25081;-70
2022/05/06 04:28:27;;;;;;;193.25;55.83;;;11.00;99.90;;;;;;5017819;28;25096;-70
2022/05/06 04:30:53;;;;;;;202.27;57.92;;;11.10;99.90;;;;;;5008189;28;25049;-69
2022/05/06 04:33:19;;;;;;;167.05;58.03;;;11.10;99.90;;;;;;5005967;28;25178;-70
2022/05/06 04:35:48;;;;;;;214.75;60.65;;;11.10;99.90;;;;;;5003503;28;25050;-70
2022/05/06 04:38:14;;;;;;;172.68;54.97;;;11.10;99.90;;;;;;5000685;28;25144;-69
2022/05/06 04:40:41;;;;;;;187.82;59.30;;;11.10;99.90;;;;;;5005181;28;25093;-71
2022/05/06 04:43:07;;;;;;;170.60;57.15;;;11.10;99.90;;;;;;5003600;28;25106;-71
2022/05/06 04:45:39;;;;;;;192.88;57.95;;;11.10;99.90;;;;;;5004091;28;25067;-71
2022/05/06 04:48:06;;;;;;;229.60;64.32;;;11.20;99.90;;;;;;5005153;28;25068;-71
2022/05/06 04:50:38;;;;;;;237.82;62.92;;;11.20;99.90;;;;;;5005383;28;25079;-71
2022/05/06 04:53:07;;;;;;;199.40;58.30;;;11.20;99.90;;;;;;5004152;28;25148;-70
2022/05/06 04:55:39;;;;;;;208.63;61.47;;;11.30;99.90;;;;;;5005968;28;25161;-69
2022/05/06 04:58:06;;;;;;;198.82;60.83;;;11.20;99.90;;;;;;5012225;28;25080;-71
2022/05/06 05:00:32;;;;;;;242.48;59.10;;;11.10;99.90;;;;;;5011872;28;25116;-71
2022/05/06 05:02:59;;;;;;;218.40;57.95;;;10.90;99.90;;;;;;5007823;28;25075;-71
2022/05/06 05:05:25;;;;;;;204.77;57.45;;;10.90;99.90;;;;;;5019906;28;25072;-69
2022/05/06 05:07:51;;;;;;;214.57;52.72;;;10.90;99.90;;;;;;5022651;28;25061;-71
2022/05/06 05:10:16;;;;;;;250.05;54.83;;;11.00;99.90;;;;;;5024464;28;25095;-71
2022/05/06 05:12:42;;;;;;;181.05;52.08;;;11.00;99.90;;;;;;5023228;28;25073;-72
2022/05/06 05:15:08;;;;;;;183.73;52.28;;;11.00;99.90;;;;;;5024002;28;25074;-72
2022/05/06 05:17:34;;;;;;;187.38;53.38;;;11.00;99.90;;;;;;5009346;28;25078;-70
2022/05/06 05:20:03;;;;;;;136.00;45.40;;;11.10;99.90;;;;;;5004460;28;25132;-72
2022/05/06 05:22:31;;;;;;;145.90;48.22;;;11.00;99.90;;;;;;5005177;28;25086;-70
2022/05/06 05:24:57;;;;;;;133.23;43.38;;;11.00;99.90;;;;;;5003966;28;25066;-70
2022/05/06 05:27:22;;;;;;;161.88;43.10;;;11.00;99.90;;;;;;5002175;28;25084;-68
2022/05/06 05:29:48;;;;;;;137.10;44.47;;;11.00;99.90;;;;;;5002866;28;25093;-72
2022/05/06 05:32:14;;;;;;;151.02;44.85;;;10.90;99.90;;;;;;5003923;28;25144;-70
2022/05/06 05:34:42;;;;;;;144.40;47.90;;;11.00;99.90;;;;;;5004705;28;25063;-71
2022/05/06 05:37:08;;;;;;;139.77;45.75;;;11.00;99.90;;;;;;5005718;28;25046;-71
2022/05/06 05:39:35;;;;;;;145.35;46.65;;;11.10;99.90;;;;;;5012532;28;25053;-70
2022/05/06 05:42:00;;;;;;;158.98;48.65;;;11.00;99.90;;;;;;5011553;28;25153;-69
2022/05/06 05:49:54;;;;;;;140.63;42.33;;;11.00;99.90;;;;;;5007849;28;25057;-70
2022/05/06 05:52:20;;;;;;;132.23;43.78;;;10.90;99.90;;;;;;5008130;28;25068;-70
2022/05/06 05:54:45;;;;;;;128.90;46.28;;;10.80;99.90;;;;;;5007612;28;25065;-70
2022/05/06 05:57:11;;;;;;;110.60;43.55;;;10.90;99.90;;;;;;5008101;28;25051;-69
2022/05/06 05:59:38;;;;;;;121.75;45.10;;;10.90;99.90;;;;;;5008080;28;25074;-70
2022/05/06 06:02:04;;;;;;;130.13;46.50;;;10.90;99.90;;;;;;5009030;28;25163;-70
2022/05/06 06:04:30;;;;;;;145.85;46.70;;;11.00;99.90;;;;;;5007147;28;25075;-70
2022/05/06 06:06:56;;;;;;;134.52;45.88;;;11.10;99.90;;;;;;5007247;28;25065;-69
2022/05/06 06:09:22;;;;;;;109.03;44.08;;;11.10;99.90;;;;;;5008378;28;25088;-70
2022/05/06 06:11:49;;;;;;;123.18;47.53;;;11.20;99.90;;;;;;5007462;28;25070;-70
2022/05/06 06:14:16;;;;;;;129.38;46.15;;;11.20;99.90;;;;;;5008158;28;25057;-69
2022/05/06 06:16:41;;;;;;;127.45;45.90;;;11.30;99.90;;;;;;5007203;28;25089;-70
2022/05/06 06:19:07;;;;;;;156.05;51.55;;;11.30;99.90;;;;;;5008447;28;25100;-69
2022/05/06 06:21:33;;;;;;;126.50;49.05;;;11.40;99.90;;;;;;5007557;28;25144;-69
2022/05/06 06:23:58;;;;;;;126.00;46.10;;;11.40;99.90;;;;;;5007135;28;24832;-71
2022/05/06 06:26:24;;;;;;;103.85;44.20;;;11.40;99.90;;;;;;5008130;28;25099;-70
2022/05/06 06:28:49;;;;;;;119.28;44.20;;;11.40;99.90;;;;;;5007056;28;25096;-69
2022/05/06 06:31:15;;;;;;;101.38;44.20;;;11.40;99.90;;;;;;5007754;28;25089;-70
2022/05/06 06:33:41;;;;;;;103.65;45.20;;;11.30;99.90;;;;;;5008376;28;25106;-69
2022/05/06 06:36:08;;;;;;;104.53;46.85;;;11.20;99.90;;;;;;5007193;28;25138;-71
2022/05/06 06:38:34;;;;;;;97.68;44.45;;;11.20;99.90;;;;;;5006931;28;25071;-69
2022/05/06 06:41:00;;;;;;;100.25;44.38;;;11.30;99.90;;;;;;5007133;28;25104;-70
2022/05/06 06:43:26;;;;;;;121.20;52.78;;;11.30;99.90;;;;;;5007262;28;25062;-71
2022/05/06 06:45:52;;;;;;;129.18;54.45;;;11.20;99.90;;;;;;5007832;28;25080;-68
2022/05/06 06:48:18;;;;;;;135.23;55.97;;;11.10;99.90;;;;;;5006308;28;25073;-69
2022/05/06 06:50:43;;;;;;;124.50;55.30;;;11.00;99.90;;;;;;5006845;28;25100;-71
2022/05/06 06:53:09;;;;;;;124.40;55.55;;;11.10;99.90;;;;;;5009619;28;25112;-71
2022/05/06 06:55:34;;;;;;;124.72;55.45;;;11.20;99.90;;;;;;5010614;28;25082;-69
2022/05/06 06:58:00;;;;;;;116.97;52.22;;;11.20;99.90;;;;;;5010528;28;25065;-69
2022/05/06 07:00:26;;;;;;;99.22;50.83;;;11.30;99.90;;;;;;5006185;28;25074;-70
2022/05/06 07:02:53;;;;;;;109.50;51.45;;;11.40;99.90;;;;;;5008336;28;25099;-70
2022/05/06 07:05:18;;;;;;;105.70;49.95;;;11.70;99.90;;;;;;5008979;28;25061;-69
2022/05/06 07:13:32;;;;;;;86.75;45.75;;;11.80;99.90;;;;;;4969044;28;25062;-68
2022/05/06 07:15:58;;;;;;;78.88;45.40;;;11.90;99.90;;;;;;4967808;28;25047;-71
2022/05/06 07:18:24;;;;;;;74.82;41.45;;;11.90;99.90;;;;;;4991118;28;25089;-69
2022/05/06 07:20:49;;;;;;;74.85;42.13;;;11.90;99.90;;;;;;5021489;28;25065;-70
2022/05/06 07:23:15;;;;;;;65.40;37.58;;;11.90;99.90;;;;;;5022389;28;25078;-70
2022/05/06 07:25:40;;;;;;;38.13;24.13;;;12.00;99.90;;;;;;5021677;28;25113;-70
2022/05/06 07:28:07;;;;;;;28.60;20.02;;;12.10;99.90;;;;;;5023245;28;25132;-71
2022/05/06 07:30:33;;;;;;;20.63;16.52;;;12.00;99.90;;;;;;5019426;28;25074;-70
2022/05/06 07:32:58;;;;;;;32.45;24.33;;;12.10;99.90;;;;;;5017401;28;25138;-68
2022/05/06 07:35:24;;;;;;;75.88;32.22;;;12.00;99.90;;;;;;5020359;28;25166;-68
2022/05/06 07:37:50;;;;;;;46.55;28.83;;;12.00;99.90;;;;;;5017381;28;25096;-70
2022/05/06 07:40:15;;;;;;;42.45;27.85;;;12.20;99.90;;;;;;5018598;28;25141;-69
2022/05/06 07:42:42;;;;;;;47.80;31.02;;;12.30;99.90;;;;;;5016510;28;25059;-72
2022/05/06 07:45:11;;;;;;;47.45;31.05;;;12.40;99.90;;;;;;5015739;28;25058;-70
2022/05/06 07:47:37;;;;;;;45.47;31.13;;;12.40;99.90;;;;;;5005488;28;25073;-68
2022/05/06 07:50:03;;;;;;;46.33;32.75;;;12.50;99.90;;;;;;5006684;28;25143;-70
2022/05/06 07:52:29;;;;;;;73.68;34.67;;;12.60;99.90;;;;;;5006218;28;25096;-71
2022/05/06 07:54:54;;;;;;;43.20;31.02;;;12.70;99.90;;;;;;5006758;28;25091;-72
2022/05/06 07:57:20;;;;;;;48.55;33.67;;;12.70;99.90;;;;;;5006659;28;25088;-73
2022/05/06 07:59:45;;;;;;;53.75;36.38;;;12.80;99.90;;;;;;5006567;28;25065;-70
2022/05/06 08:04:55;;;;;;;52.53;37.65;;;13.50;99.90;;;;;;5010285;28;25066;-70
2022/05/06 08:07:20;;;;;;;56.30;37.20;;;13.60;97.10;;;;;;5011057;28;25079;-73
2022/05/06 08:09:46;;;;;;;52.35;38.42;;;13.80;97.60;;;;;;5006271;28;25070;-72
2022/05/06 08:12:13;;;;;;;56.35;40.13;;;14.30;92.30;;;;;;5006906;28;25094;-71
2022/05/06 08:14:39;;;;;;;48.83;36.17;;;14.70;77.30;;;;;;5007761;28;25077;-71
2022/05/06 08:17:05;;;;;;;47.08;34.38;;;14.60;62.20;;;;;;5007364;28;25099;-71
2022/05/06 08:19:31;;;;;;;40.90;31.17;;;14.80;56.80;;;;;;5006776;28;25085;-70
2022/05/06 08:21:56;;;;;;;44.08;32.72;;;15.10;56.70;;;;;;5007836;28;25114;-71
2022/05/06 08:24:22;;;;;;;37.90;29.85;;;15.00;34.20;;;;;;5007250;28;25203;-71
2022/05/06 08:26:49;;;;;;;46.90;33.15;;;15.30;50.10;;;;;;5007438;28;25141;-71
2022/05/06 08:29:15;;;;;;;41.00;30.60;;;15.80;36.30;;;;;;5007734;28;25056;-72
2022/05/06 08:31:40;;;;;;;35.78;28.80;;;16.10;26.30;;;;;;5010032;28;25132;-72
2022/05/06 08:34:09;;;;;;;36.42;28.90;;;16.40;23.00;;;;;;5010716;28;25135;-71
2022/05/06 08:36:37;;;;;;;37.63;28.33;;;16.30;15.90;;;;;;5010582;28;25075;-73
2022/05/06 08:39:04;;;;;;;35.38;27.27;;;16.60;14.90;;;;;;5011188;28;25064;-71
2022/05/06 08:41:30;;;;;;;36.13;28.90;;;16.50;12.20;;;;;;5010223;28;25193;-72
2022/05/06 08:43:57;;;;;;;35.10;27.58;;;16.40;11.80;;;;;;5011090;28;25102;-69
2022/05/06 08:51:58;;;;;;;22.70;19.50;;;17.10;5.80;;;;;;5011164;28;25076;-70
2022/05/06 08:54:24;;;;;;;22.92;19.02;;;17.00;6.30;;;;;;5010309;28;25157;-72
2022/05/06 08:56:50;;;;;;;24.60;20.55;;;17.40;4.20;;;;;;5011562;28;25114;-72
2022/05/06 08:59:16;;;;;;;19.63;17.38;;;17.80;1.00;;;;;;5011720;28;25048;-73
2022/05/06 09:01:42;;;;;;;19.13;16.27;;;18.00;1.00;;;;;;5011108;28;25140;-71
2022/05/06 09:04:08;;;;;;;20.08;17.17;;;18.40;1.00;;;;;;5011343;28;25056;-71
2022/05/06 09:06:34;;;;;;;18.95;16.95;;;18.70;1.00;;;;;;5012440;28;25054;-72
2022/05/06 09:09:00;;;;;;;21.05;17.65;;;18.40;1.00;;;;;;5011801;28;25095;-72
2022/05/06 09:16:39;;;;;;;18.02;16.05;;;18.60;1.00;;;;;;5023956;28;25050;-71
2022/05/06 09:17:24;;;;;;;28.95;16.65;;;18.70;1.00;;;;;;5030247;28;25101;-71
2022/05/06 09:19:49;;;;;;;18.98;16.17;;;18.80;1.00;;;;;;5029720;28;25054;-71
2022/05/06 09:22:16;;;;;;;24.85;18.40;;;18.40;1.00;;;;;;5029097;28;25055;-71
2022/05/06 09:24:43;;;;;;;20.73;18.52;;;18.90;1.00;;;;;;5029509;28;25059;-73
2022/05/06 09:27:14;;;;;;;18.90;15.90;;;19.30;1.00;;;;;;5031828;28;25103;-73
2022/05/06 09:29:41;;;;;;;18.88;17.00;;;19.60;1.00;;;;;;5029467;28;25069;-71
2022/05/06 09:32:17;;;;;;;18.15;15.77;;;19.50;1.00;;;;;;5029470;28;25085;-70
2022/05/06 09:34:44;;;;;;;16.55;14.82;;;19.90;1.00;;;;;;5024225;28;25082;-70
2022/05/06 09:37:10;;;;;;;11.23;10.15;;;20.10;1.00;;;;;;5013324;28;25073;-70
2022/05/06 09:39:38;;;;;;;13.10;10.98;;;19.90;1.00;;;;;;5013108;28;25135;-73
2022/05/06 09:42:05;;;;;;;12.63;10.68;;;19.90;1.00;;;;;;5026581;28;25054;-71
2022/05/06 09:44:32;;;;;;;10.45;9.45;;;20.00;1.00;;;;;;5030679;28;25072;-71
2022/05/06 09:47:12;;;;;;;10.88;9.75;;;19.90;1.00;;;;;;5035334;28;25061;-73
2022/05/06 09:49:41;;;;;;;12.68;9.85;;;19.90;1.00;;;;;;5036615;28;25066;-71
2022/05/06 09:52:14;;;;;;;11.13;9.93;;;19.60;1.00;;;;;;5036366;28;25063;-71
2022/05/06 09:54:44;;;;;;;11.02;9.13;;;20.10;1.00;;;;;;5036857;28;25060;-71
2022/05/06 09:57:11;;;;;;;15.60;9.10;;;19.50;1.00;;;;;;5037739;28;25070;-71
2022/05/06 09:59:37;;;;;;;11.13;9.15;;;19.60;1.00;;;;;;5037819;28;25068;-72
2022/05/06 10:02:07;;;;;;;14.88;9.35;;;20.00;1.00;;;;;;5034635;28;25068;-72
2022/05/06 10:04:36;;;;;;;9.52;8.50;;;20.60;1.00;;;;;;5034132;28;25096;-71
2022/05/06 10:07:05;;;;;;;12.57;10.32;;;20.70;1.00;;;;;;5045569;28;25051;-71
2022/05/06 10:09:37;;;;;;;11.80;9.95;;;20.80;1.00;;;;;;5023358;28;25084;-71
2022/05/06 10:12:05;;;;;;;12.20;10.85;;;20.30;1.00;;;;;;5013220;28;25087;-73
2022/05/06 10:14:32;;;;;;;14.98;9.88;;;20.00;1.00;;;;;;5024229;28;25054;-71
2022/05/06 10:16:58;;;;;;;12.82;9.32;;;19.80;1.00;;;;;;5014753;28;25107;-72
2022/05/06 10:19:38;;;;;;;11.15;9.85;;;20.50;1.00;;;;;;5009735;28;25089;-72
2022/05/06 10:22:04;;;;;;;12.25;10.05;;;20.90;1.00;;;;;;5010306;28;25130;-71
2022/05/06 10:24:41;;;;;;;11.05;9.45;;;21.20;1.00;;;;;;5009246;28;25066;-71
2022/05/06 10:33:22;;;;;;;10.02;9.00;;;21.70;1.00;;;;;;5010713;28;25134;-70
2022/05/06 10:35:48;;;;;;;9.90;8.90;;;21.70;1.00;;;;;;5010662;28;25072;-72
2022/05/06 10:38:21;;;;;;;12.63;10.35;;;21.30;1.00;;;;;;5010073;28;25069;-73
2022/05/06 10:40:54;;;;;;;10.82;9.68;;;21.30;1.00;;;;;;5009965;28;25074;-73
2022/05/06 10:43:48;;;;;;;10.73;9.25;;;21.60;1.00;;;;;;5013491;28;25108;-71
2022/05/06 10:46:34;;;;;;;15.10;11.25;;;22.00;1.00;;;;;;5022480;28;25140;-69
2022/05/06 10:49:37;;;;;;;11.23;10.13;;;21.00;1.00;;;;;;5021627;28;25064;-70
2022/05/06 10:52:23;;;;;;;14.85;10.35;;;21.30;1.00;;;;;;5025086;28;25090;-71
2022/05/06 10:55:00;;;;;;;29.98;12.23;;;21.80;1.00;;;;;;5021087;28;25081;-69
2022/05/06 10:57:27;;;;;;;15.65;10.85;;;21.70;1.00;;;;;;5024476;28;25081;-72
2022/05/06 11:00:01;;;;;;;14.20;10.30;;;21.20;1.00;;;;;;5020701;28;25086;-71
2022/05/06 11:02:36;;;;;;;15.98;11.55;;;20.90;1.00;;;;;;5024666;28;25061;-70
2022/05/06 11:05:08;;;;;;;16.92;12.23;;;21.10;1.00;;;;;;5024348;28;25141;-70
2022/05/06 11:07:35;;;;;;;14.70;11.85;;;21.80;1.00;;;;;;5027540;28;25072;-71
2022/05/06 11:10:21;;;;;;;14.93;11.00;;;22.00;1.00;;;;;;5026872;28;25112;-70
2022/05/06 11:12:50;;;;;;;16.48;10.93;;;21.90;1.00;;;;;;5023843;28;25051;-68
2022/05/06 11:15:21;;;;;;;16.40;11.88;;;21.60;1.00;;;;;;5023760;28;25141;-73
2022/05/06 11:17:48;;;;;;;14.18;11.90;;;21.10;1.00;;;;;;5024816;28;25054;-70
2022/05/06 11:20:21;;;;;;;14.18;12.18;;;21.20;1.00;;;;;;5022394;28;25075;-72
2022/05/06 11:22:54;;;;;;;14.23;12.55;;;21.40;1.00;;;;;;5015359;28;25153;-72
2022/05/06 11:25:21;;;;;;;17.30;14.25;;;21.90;1.00;;;;;;5015520;28;25083;-72
2022/05/06 11:27:48;;;;;;;16.95;13.15;;;22.20;1.00;;;;;;5017143;28;25087;-73
2022/05/06 11:30:18;;;;;;;16.13;14.05;;;22.30;1.00;;;;;;5018329;28;25136;-74
2022/05/06 11:32:56;;;;;;;15.77;14.02;;;22.30;1.00;;;;;;5016949;28;25066;-73
2022/05/06 11:35:28;;;;;;;13.88;11.48;;;21.60;1.00;;;;;;5000202;28;25099;-72
2022/05/06 11:37:55;;;;;;;12.70;11.30;;;22.10;1.00;;;;;;5017214;28;25063;-74
2022/05/06 11:42:53;;;;;;;15.85;12.23;;;21.80;1.00;;;;;;5016455;28;25064;-73
2022/05/06 11:48:08;;;;;;;15.10;10.27;;;22.30;1.00;;;;;;5011675;28;25047;-73
2022/05/06 11:50:38;;;;;;;14.95;11.43;;;22.50;1.00;;;;;;5011443;28;25073;-72
2022/05/06 11:53:08;;;;;;;23.25;13.05;;;22.30;1.00;;;;;;5005080;28;25143;-73
2022/05/06 11:55:35;;;;;;;16.98;11.60;;;22.40;1.00;;;;;;5006721;28;25080;-72
2022/05/06 11:58:05;;;;;;;15.80;12.45;;;22.30;1.00;;;;;;5008225;28;25081;-73
2022/05/06 12:00:31;;;;;;;14.43;11.52;;;22.50;1.00;;;;;;5007811;28;24910;-75
2022/05/06 12:03:05;;;;;;;15.43;11.20;;;22.30;1.00;;;;;;5008019;28;25069;-72
2022/05/06 12:05:32;;;;;;;12.77;9.90;;;22.40;1.00;;;;;;5009579;28;25055;-71
2022/05/06 12:07:58;;;;;;;13.90;9.32;;;22.60;1.00;;;;;;5010664;28;25070;-73
2022/05/06 12:10:30;;;;;;;13.73;10.57;;;22.70;1.00;;;;;;5010525;28;25080;-73
2022/05/06 12:12:58;;;;;;;12.30;8.95;;;22.80;1.00;;;;;;5011607;28;25055;-72
2022/05/06 12:15:37;;;;;;;13.95;10.48;;;23.00;1.00;;;;;;5011019;28;25060;-73
2022/05/06 12:18:04;;;;;;;13.63;11.23;;;23.10;1.00;;;;;;5010122;28;25082;-72
2022/05/06 12:20:31;;;;;;;12.90;10.20;;;23.20;1.00;;;;;;5010965;28;25162;-73
2022/05/06 12:22:58;;;;;;;14.00;11.85;;;23.10;1.00;;;;;;5011944;28;25080;-74
2022/05/06 12:25:24;;;;;;;18.77;10.35;;;22.90;1.00;;;;;;5011828;28;25061;-71
2022/05/06 12:28:03;;;;;;;14.93;10.73;;;22.60;1.00;;;;;;5015204;28;24937;-72
2022/05/06 12:30:33;;;;;;;12.40;9.68;;;22.10;1.00;;;;;;5017747;28;25079;-73
2022/05/06 12:33:10;;;;;;;12.90;10.23;;;22.10;1.00;;;;;;5019597;28;25063;-74
2022/05/06 12:35:57;;;;;;;14.18;10.70;;;22.60;1.00;;;;;;5013163;28;25075;-72
2022/05/06 12:38:43;;;;;;;19.15;10.23;;;23.30;1.00;;;;;;5014572;28;25078;-74
2022/05/06 12:41:41;;;;;;;18.20;10.70;;;23.70;1.00;;;;;;5018983;28;25064;-71
2022/05/06 12:44:36;;;;;;;11.70;10.07;;;23.60;1.00;;;;;;4999840;28;25067;-71
2022/05/06 12:47:12;;;;;;;13.30;11.70;;;22.90;1.00;;;;;;5011944;28;25174;-71
2022/05/06 12:49:40;;;;;;;14.07;11.23;;;22.80;1.00;;;;;;5011522;28;25082;-72
2022/05/06 12:52:08;;;;;;;15.43;11.15;;;22.90;1.00;;;;;;5013927;28;25082;-72
2022/05/06 12:54:34;;;;;;;12.18;9.77;;;23.20;1.00;;;;;;5014569;28;25083;-72
2022/05/06 12:57:01;;;;;;;16.80;10.98;;;23.40;1.00;;;;;;5014766;28;25081;-73
2022/05/06 12:59:27;;;;;;;13.65;10.45;;;22.60;1.00;;;;;;5014478;28;25074;-71
2022/05/06 13:01:53;;;;;;;15.65;10.65;;;22.20;1.00;;;;;;5018786;28;25115;-73
2022/05/06 13:04:19;;;;;;;49.80;16.17;;;22.30;1.00;;;;;;5022827;28;25080;-74
2022/05/06 13:06:45;;;;;;;16.10;11.90;;;22.30;1.00;;;;;;5022286;28;25079;-74
2022/05/06 13:09:11;;;;;;;19.15;10.55;;;22.40;1.00;;;;;;5020844;28;25068;-72
2022/05/06 13:11:36;;;;;;;18.02;12.32;;;22.80;1.00;;;;;;5022274;28;25079;-70
2022/05/06 13:14:02;;;;;;;17.40;13.05;;;22.90;1.00;;;;;;5013486;28;25063;-72
2022/05/06 13:16:28;;;;;;;32.08;12.45;;;22.40;1.00;;;;;;5010376;28;25074;-71
2022/05/06 13:18:54;;;;;;;19.02;11.95;;;22.10;1.00;;;;;;5009133;28;25060;-72